Time;durP1;ratioP1;P1;durP2;ratioP2;P2;SDS_P1;SDS_P2;PMS_P1;PMS_P2;Temp;Humidity;BMP_temperature;BMP_pressure;BME280_temperature;BME280_humidity;BME280_pressure;Samples;Min_cycle;Max_cycle;Signal;HPM_P1;HPM_P2
2022/07/10 00:05:11;;;;;;;10.20;1.58;;;15.00;99.90;;;;;;10355709;28;20371;-76
2022/07/10 00:10:36;;;;;;;2.85;1.33;;;14.80;99.90;;;;;;10331414;28;20610;-77
2022/07/10 00:15:57;;;;;;;4.07;1.33;;;14.70;99.90;;;;;;10314055;28;20514;-77
2022/07/10 00:21:18;;;;;;;4.65;1.17;;;14.60;99.90;;;;;;10313756;28;20202;-77
2022/07/10 00:26:40;;;;;;;2.72;1.42;;;14.60;99.90;;;;;;10314475;28;20508;-77
2022/07/10 00:32:02;;;;;;;4.97;1.50;;;14.60;99.90;;;;;;10313266;28;20247;-77
2022/07/10 00:37:24;;;;;;;4.80;1.20;;;14.60;99.90;;;;;;10316423;28;20216;-77
2022/07/10 00:42:45;;;;;;;3.45;1.20;;;14.70;99.90;;;;;;10353591;28;20244;-77
2022/07/10 00:48:06;;;;;;;7.70;1.70;;;14.60;99.90;;;;;;10354283;28;20472;-78
2022/07/10 00:53:27;;;;;;;3.75;1.15;;;14.60;1.00;;;;;;10339234;28;20245;-78
2022/07/10 00:58:51;;;;;;;2.72;1.25;;;14.60;1.00;;;;;;10353800;28;20199;-78
2022/07/10 01:04:13;;;;;;;5.30;1.25;;;14.60;1.00;;;;;;10359537;28;20192;-77
2022/07/10 01:09:34;;;;;;;7.50;1.58;;;14.60;1.00;;;;;;10336832;28;20196;-77
2022/07/10 01:14:56;;;;;;;5.38;1.58;;;14.50;1.00;;;;;;10320803;28;20208;-78
2022/07/10 01:20:17;;;;;;;4.88;1.02;;;14.50;1.00;;;;;;10321373;28;20200;-77
2022/07/10 01:25:38;;;;;;;6.30;1.45;;;14.40;1.00;;;;;;10322373;28;20192;-78
2022/07/10 01:31:02;;;;;;;5.43;1.75;;;14.40;1.00;;;;;;10321123;28;21076;-77
2022/07/10 01:36:24;;;;;;;5.63;1.23;;;14.40;1.00;;;;;;10319676;28;20248;-77
2022/07/10 01:41:46;;;;;;;3.67;1.30;;;14.40;1.00;;;;;;10360319;28;20258;-78
2022/07/10 01:47:08;;;;;;;6.70;1.30;;;14.40;1.00;;;;;;10357296;28;20221;-77
2022/07/10 01:52:30;;;;;;;7.47;1.33;;;14.40;1.00;;;;;;10360305;28;20225;-78
2022/07/10 01:57:51;;;;;;;7.55;1.23;;;14.40;1.00;;;;;;10359722;28;20228;-78
2022/07/10 02:08:53;;;;;;;6.40;1.70;;;14.40;1.00;;;;;;10378858;28;20221;-78
2022/07/10 02:14:15;;;;;;;5.43;1.17;;;14.30;1.00;;;;;;10399599;28;20293;-78
2022/07/10 02:19:36;;;;;;;5.95;1.23;;;14.20;1.00;;;;;;10398875;28;20260;-76
2022/07/10 02:24:58;;;;;;;13.13;1.60;;;14.20;1.00;;;;;;10400021;28;20274;-77
2022/07/10 02:30:19;;;;;;;10.38;1.67;;;14.20;1.00;;;;;;10399668;28;20268;-77
2022/07/10 02:35:41;;;;;;;2.95;0.88;;;14.20;1.00;;;;;;10384374;28;20259;-77
2022/07/10 02:41:03;;;;;;;6.90;1.60;;;14.20;3.60;;;;;;10357486;28;20375;-78
2022/07/10 02:46:25;;;;;;;4.78;1.38;;;14.20;1.00;;;;;;10358393;28;20484;-78
2022/07/10 02:51:46;;;;;;;8.10;1.88;;;14.20;2.90;;;;;;10371216;28;20222;-78
2022/07/10 02:57:08;;;;;;;6.07;1.45;;;14.20;8.50;;;;;;10359093;28;20198;-77
2022/07/10 03:02:29;;;;;;;5.20;1.20;;;14.00;1.00;;;;;;10371555;28;20224;-78
2022/07/10 03:07:51;;;;;;;5.18;1.45;;;14.10;1.00;;;;;;10369022;28;20186;-77
2022/07/10 03:13:13;;;;;;;4.18;1.05;;;14.10;1.00;;;;;;10357051;28;20227;-78
2022/07/10 03:18:34;;;;;;;5.40;1.27;;;14.20;1.00;;;;;;10357027;28;20236;-77
2022/07/10 03:23:55;;;;;;;10.25;1.20;;;14.20;2.70;;;;;;10356467;28;20512;-77
2022/07/10 03:29:17;;;;;;;8.75;1.40;;;14.20;1.00;;;;;;10356737;28;20190;-77
2022/07/10 03:34:42;;;;;;;8.05;1.30;;;14.30;13.00;;;;;;10354967;28;20239;-77
2022/07/10 03:40:04;;;;;;;3.78;1.42;;;14.40;41.40;;;;;;10355581;28;20195;-77
2022/07/10 03:45:26;;;;;;;2.08;1.02;;;14.30;90.00;;;;;;10355985;28;20217;-77
2022/07/10 03:50:50;;;;;;;5.70;1.38;;;14.10;98.00;;;;;;10355868;28;20259;-78
2022/07/10 03:57:53;;;;;;;5.00;1.45;;;14.30;70.80;;;;;;10355735;28;20215;-78
2022/07/10 04:01:53;;;;;;;8.27;2.28;;;14.30;70.30;;;;;;10355289;28;20530;-78
2022/07/10 04:07:16;;;;;;;5.35;1.20;;;14.40;94.70;;;;;;10362424;28;20279;-78
2022/07/10 04:12:37;;;;;;;4.90;1.75;;;14.20;85.00;;;;;;10395061;28;20218;-78
2022/07/10 04:17:59;;;;;;;3.47;1.23;;;14.10;93.50;;;;;;10394651;28;20217;-78
2022/07/10 04:23:21;;;;;;;7.45;1.73;;;14.10;90.20;;;;;;10394648;28;20273;-78
2022/07/10 04:28:42;;;;;;;12.48;1.70;;;14.10;91.50;;;;;;10395660;28;20198;-77
2022/07/10 04:34:04;;;;;;;6.78;1.33;;;14.20;99.90;;;;;;10394485;28;20222;-78
2022/07/10 04:39:26;;;;;;;5.03;1.45;;;14.10;92.40;;;;;;10358937;28;20198;-78
2022/07/10 04:44:47;;;;;;;3.75;1.13;;;14.20;95.90;;;;;;10368043;28;20192;-78
2022/07/10 04:50:09;;;;;;;5.57;1.27;;;14.30;80.50;;;;;;10367719;28;20451;-79
2022/07/10 04:55:30;;;;;;;5.00;1.35;;;14.20;64.30;;;;;;10368940;28;20202;-78
2022/07/10 05:00:51;;;;;;;6.85;1.50;;;14.20;47.70;;;;;;10368349;28;20218;-78
2022/07/10 05:06:13;;;;;;;9.55;1.50;;;14.40;61.40;;;;;;10368372;28;20221;-78
2022/07/10 05:11:35;;;;;;;6.82;1.45;;;14.40;71.30;;;;;;10353530;28;20222;-78
2022/07/10 05:16:57;;;;;;;5.55;1.20;;;14.50;99.90;;;;;;10361413;28;20415;-78
2022/07/10 05:22:18;;;;;;;3.88;1.13;;;14.60;57.30;;;;;;10359419;28;20245;-78
2022/07/10 05:27:40;;;;;;;6.82;1.65;;;14.70;63.50;;;;;;10367145;28;20214;-77
2022/07/10 05:33:01;;;;;;;4.13;1.70;;;14.60;96.90;;;;;;10367344;28;20252;-77
2022/07/10 05:38:23;;;;;;;7.60;1.88;;;14.50;99.90;;;;;;10342267;28;20200;-78
2022/07/10 05:43:45;;;;;;;4.68;1.30;;;14.40;99.90;;;;;;10326735;28;20307;-77
2022/07/10 05:49:07;;;;;;;5.70;1.30;;;14.50;99.90;;;;;;10362623;28;20235;-78
2022/07/10 05:54:28;;;;;;;3.95;1.05;;;14.50;99.90;;;;;;10360487;28;20530;-78
2022/07/10 05:59:50;;;;;;;1.98;1.02;;;14.40;99.90;;;;;;10359812;28;20519;-79
2022/07/10 06:05:12;;;;;;;7.60;1.55;;;14.40;99.90;;;;;;10360619;28;20258;-78
2022/07/10 06:10:34;;;;;;;5.10;1.05;;;14.40;99.90;;;;;;10393960;28;20422;-79
2022/07/10 06:15:55;;;;;;;3.50;1.23;;;14.30;99.90;;;;;;10364792;28;20196;-78
2022/07/10 06:21:21;;;;;;;4.40;1.20;;;14.20;99.90;;;;;;10318388;28;20501;-78
2022/07/10 06:26:42;;;;;;;2.88;0.80;;;14.20;99.90;;;;;;10318842;28;20270;-79
2022/07/10 06:32:05;;;;;;;1.38;0.77;;;14.30;99.90;;;;;;10317491;28;20306;-78
2022/07/10 06:37:26;;;;;;;3.17;1.35;;;14.40;99.90;;;;;;10317630;28;20215;-77
2022/07/10 06:42:48;;;;;;;4.82;1.10;;;14.50;99.90;;;;;;10318276;28;20261;-78
2022/07/10 06:48:13;;;;;;;4.22;0.85;;;14.50;99.90;;;;;;10352799;28;20231;-78
2022/07/10 06:53:35;;;;;;;4.43;1.58;;;14.60;99.90;;;;;;10371222;28;20227;-78
2022/07/10 06:58:57;;;;;;;3.05;1.00;;;14.70;99.90;;;;;;10356372;28;20507;-77
2022/07/10 07:04:18;;;;;;;4.53;1.02;;;14.90;99.90;;;;;;10357991;28;20202;-78
2022/07/10 07:09:40;;;;;;;4.18;0.88;;;15.30;98.30;;;;;;10369824;28;20317;-78
2022/07/10 07:15:03;;;;;;;2.15;0.90;;;16.10;89.20;;;;;;10373395;28;20225;-78
2022/07/10 07:26:05;;;;;;;3.75;0.95;;;16.30;99.90;;;;;;10324951;28;20213;-78
2022/07/10 07:31:27;;;;;;;2.80;1.20;;;16.30;99.90;;;;;;10317493;28;20522;-78
2022/07/10 07:36:49;;;;;;;2.13;1.10;;;16.50;16.50;;;;;;10316967;28;20387;-78
2022/07/10 07:42:10;;;;;;;4.13;0.90;;;16.90;1.00;;;;;;10315192;28;20198;-78
2022/07/10 07:47:46;;;;;;;6.55;1.40;;;17.20;1.00;;;;;;10332725;28;20241;-79
2022/07/10 07:53:08;;;;;;;3.10;1.17;;;17.30;1.00;;;;;;10357376;28;20227;-78
2022/07/10 07:58:29;;;;;;;4.10;1.30;;;17.40;1.00;;;;;;10354566;28;20197;-78
2022/07/10 08:03:51;;;;;;;7.18;1.50;;;17.70;16.50;;;;;;10341273;28;20571;-78
2022/07/10 08:09:27;;;;;;;2.97;1.33;;;;;;;;;;10381952;28;20276;-78
2022/07/10 08:14:49;;;;;;;6.15;1.55;;;19.40;99.90;;;;;;10375048;28;20280;-77
2022/07/10 08:20:12;;;;;;;3.30;1.67;;;20.60;1.00;;;;;;10315137;28;20191;-77
2022/07/10 08:25:35;;;;;;;3.00;1.23;;;21.40;1.00;;;;;;10314646;28;20225;-77
2022/07/10 08:30:56;;;;;;;3.38;1.30;;;21.40;1.00;;;;;;10313331;28;20361;-77
2022/07/10 08:36:18;;;;;;;6.20;1.45;;;20.70;99.90;;;;;;10314551;28;20198;-77
2022/07/10 08:42:00;;;;;;;5.40;1.60;;;19.90;99.90;;;;;;10314430;28;20202;-77
2022/07/10 08:47:23;;;;;;;4.45;1.90;;;18.80;1.00;;;;;;10347293;28;20453;-77
2022/07/10 08:53:08;;;;;;;3.05;1.38;;;18.30;1.00;;;;;;10345717;28;20221;-78
2022/07/10 08:58:32;;;;;;;6.68;1.70;;;18.10;99.90;;;;;;10351802;28;20201;-77
2022/07/10 09:03:54;;;;;;;4.25;1.40;;;18.20;99.90;;;;;;10353594;28;20516;-77
2022/07/10 09:09:16;;;;;;;3.50;1.30;;;17.80;1.00;;;;;;10377648;28;20500;-78
2022/07/10 09:14:37;;;;;;;3.90;1.20;;;17.40;99.90;;;;;;10407583;28;20216;-77
2022/07/10 09:19:59;;;;;;;9.10;1.58;;;17.20;1.00;;;;;;10393436;28;20415;-78
2022/07/10 09:25:21;;;;;;;2.85;1.10;;;16.90;1.00;;;;;;10384297;28;20227;-77
2022/07/10 09:30:42;;;;;;;2.33;1.15;;;16.50;1.00;;;;;;10401314;28;20514;-78
2022/07/10 09:36:11;;;;;;;4.32;1.60;;;16.50;1.00;;;;;;10345266;28;20205;-78
2022/07/10 09:41:32;;;;;;;8.38;1.52;;;16.50;1.00;;;;;;10324127;28;20204;-78
2022/07/10 09:46:53;;;;;;;5.13;1.33;;;16.40;19.20;;;;;;10360845;28;20244;-77
2022/07/10 09:52:19;;;;;;;3.88;1.58;;;16.40;19.20;;;;;;10360467;28;20284;-77
2022/07/10 09:57:45;;;;;;;11.30;2.10;;;16.40;99.90;;;;;;10362269;28;20212;-77
2022/07/10 10:03:09;;;;;;;5.60;1.40;;;16.40;32.90;;;;;;10323983;28;20224;-76
2022/07/10 10:09:01;;;;;;;6.03;1.70;;;16.20;63.40;;;;;;10376338;28;20214;-76
2022/07/10 10:14:23;;;;;;;5.20;1.52;;;15.90;99.90;;;;;;10399552;28;20232;-78
2022/07/10 10:25:29;;;;;;;5.30;1.30;;;16.50;99.90;;;;;;10318526;28;20366;-78
2022/07/10 10:31:02;;;;;;;2.78;1.13;;;16.70;99.90;;;;;;10304564;28;20232;-79
2022/07/10 10:36:36;;;;;;;7.65;1.90;;;16.70;88.90;;;;;;10333440;28;20230;-78
2022/07/10 10:41:58;;;;;;;7.35;1.92;;;16.90;58.00;;;;;;10359195;28;20219;-77
2022/07/10 10:47:20;;;;;;;7.70;1.70;;;17.00;97.70;;;;;;10364597;28;20273;-80
2022/07/10 10:53:01;;;;;;;5.07;1.90;;;17.00;99.40;;;;;;10359684;28;20585;-77
2022/07/10 10:58:25;;;;;;;8.77;1.98;;;17.20;41.70;;;;;;10357664;28;20236;-78
2022/07/10 11:04:19;;;;;;;6.05;1.95;;;17.30;39.70;;;;;;10357118;28;20200;-77
2022/07/10 11:09:40;;;;;;;4.03;1.60;;;17.20;99.90;;;;;;10300450;28;20222;-76
2022/07/10 11:15:06;;;;;;;5.15;1.83;;;17.30;54.30;;;;;;10279085;28;20234;-76
2022/07/10 11:20:34;;;;;;;6.68;1.73;;;17.50;96.00;;;;;;10273883;29;20246;-76
2022/07/10 11:26:11;;;;;;;5.60;2.33;;;18.00;34.60;;;;;;10257105;29;20517;-76
2022/07/10 11:31:44;;;;;;;9.55;1.83;;;18.70;14.10;;;;;;10259657;29;20257;-76
2022/07/10 11:37:16;;;;;;;4.10;1.27;;;19.50;1.00;;;;;;10259759;29;20286;-76
2022/07/10 11:42:55;;;;;;;7.32;2.00;;;20.10;1.00;;;;;;10286909;28;20210;-77
2022/07/10 11:48:18;;;;;;;3.97;1.52;;;20.70;1.00;;;;;;10326882;28;20432;-77
2022/07/10 11:53:39;;;;;;;6.18;2.25;;;20.80;1.00;;;;;;10317239;28;20225;-77
2022/07/10 11:59:06;;;;;;;6.40;1.75;;;20.90;1.00;;;;;;10354640;28;20248;-77
2022/07/10 12:04:31;;;;;;;4.93;1.50;;;21.40;99.90;;;;;;10355181;28;20198;-77
2022/07/10 12:09:54;;;;;;;6.90;2.00;;;21.60;88.30;;;;;;10369364;28;20193;-77
2022/07/10 12:15:34;;;;;;;5.80;1.58;;;21.40;99.90;;;;;;10396030;28;20247;-77
2022/07/10 12:20:55;;;;;;;3.97;1.42;;;21.90;1.00;;;;;;10395888;28;20209;-77
2022/07/10 12:26:17;;;;;;;6.20;1.50;;;21.40;1.00;;;;;;10408865;28;20372;-77
2022/07/10 12:31:38;;;;;;;5.30;1.08;;;20.70;1.00;;;;;;10394371;28;20320;-77
2022/07/10 12:37:10;;;;;;;2.97;1.02;;;20.80;99.90;;;;;;10355815;28;20194;-78
2022/07/10 12:42:32;;;;;;;3.05;1.20;;;20.80;99.90;;;;;;10354601;28;20189;-78
2022/07/10 12:47:53;;;;;;;4.88;1.20;;;20.40;1.00;;;;;;10354020;28;20428;-78
2022/07/10 12:53:15;;;;;;;1.80;0.80;;;19.90;1.00;;;;;;10354622;28;20442;-77
2022/07/10 12:58:36;;;;;;;1.75;0.77;;;19.50;1.00;;;;;;10357492;28;20198;-77
2022/07/10 13:04:00;;;;;;;3.35;1.17;;;19.60;1.00;;;;;;10349241;28;20201;-77
2022/07/10 13:09:26;;;;;;;2.55;0.88;;;19.70;1.00;;;;;;10371207;28;20495;-77
2022/07/10 13:14:47;;;;;;;2.90;1.10;;;20.30;1.00;;;;;;10402762;28;20220;-78
2022/07/10 13:20:09;;;;;;;4.28;1.70;;;21.00;1.00;;;;;;10402670;28;20411;-77
2022/07/10 13:25:31;;;;;;;5.20;1.38;;;21.60;91.60;;;;;;10402168;28;20455;-78
2022/07/10 13:30:52;;;;;;;3.97;1.60;;;21.70;1.00;;;;;;10401154;28;20247;-77
2022/07/10 13:36:15;;;;;;;4.15;1.83;;;21.10;99.90;;;;;;10365777;28;20288;-78
2022/07/10 13:41:36;;;;;;;8.27;1.70;;;20.20;1.00;;;;;;10329133;28;20218;-79
2022/07/10 13:47:48;;;;;;;5.25;1.42;;;18.70;99.90;;;;;;10230601;29;20251;-76
2022/07/10 13:53:10;;;;;;;4.78;1.00;;;17.60;1.00;;;;;;10237347;29;20273;-77
2022/07/10 13:58:32;;;;;;;7.57;1.67;;;17.10;1.00;;;;;;10272303;28;20453;-79
2022/07/10 14:03:53;;;;;;;3.38;1.35;;;17.60;2.50;;;;;;10283133;28;20210;-77
2022/07/10 14:09:15;;;;;;;4.90;1.30;;;18.40;1.00;;;;;;10269145;28;20209;-78
2022/07/10 14:14:36;;;;;;;4.90;1.00;;;19.00;1.00;;;;;;10328147;28;20265;-79
2022/07/10 14:19:58;;;;;;;5.05;1.52;;;19.30;1.00;;;;;;10400361;28;20189;-78
2022/07/10 14:25:23;;;;;;;2.25;1.02;;;19.50;1.00;;;;;;10399990;28;20546;-79
2022/07/10 14:30:44;;;;;;;1.70;0.57;;;19.40;1.00;;;;;;10399849;28;20193;-78
2022/07/10 14:36:09;;;;;;;3.13;0.98;;;19.50;1.00;;;;;;10325525;28;20245;-78
2022/07/10 14:41:30;;;;;;;2.13;1.13;;;19.50;99.90;;;;;;10318391;28;20190;-77
2022/07/10 14:46:52;;;;;;;5.85;1.70;;;19.50;99.90;;;;;;10317426;28;20230;-78
2022/07/10 14:52:15;;;;;;;6.25;1.02;;;19.70;1.00;;;;;;10317150;28;20291;-77
2022/07/10 14:57:36;;;;;;;1.40;0.80;;;19.40;92.90;;;;;;10346579;28;20205;-78
2022/07/10 15:02:58;;;;;;;2.42;0.82;;;19.30;99.90;;;;;;10345428;28;20217;-77
2022/07/10 15:08:24;;;;;;;4.82;1.17;;;19.50;1.00;;;;;;10349765;28;20193;-78
2022/07/10 15:13:45;;;;;;;0.90;0.70;;;19.70;99.90;;;;;;10397102;28;20343;-78
2022/07/10 15:19:09;;;;;;;1.70;0.82;;;19.50;1.00;;;;;;10383185;28;20197;-78
2022/07/10 15:24:31;;;;;;;3.90;1.00;;;19.20;99.90;;;;;;10396460;28;20220;-79
2022/07/10 15:29:55;;;;;;;3.00;1.00;;;18.90;99.90;;;;;;10397855;28;20264;-77
2022/07/10 15:35:17;;;;;;;3.58;1.20;;;19.00;1.00;;;;;;10333890;28;20246;-78
2022/07/10 15:40:38;;;;;;;4.07;1.00;;;18.90;1.00;;;;;;10316373;28;20194;-77
2022/07/10 15:46:00;;;;;;;0.50;0.47;;;18.90;1.00;;;;;;10316211;28;20237;-78
2022/07/10 15:51:21;;;;;;;0.57;0.57;;;18.80;99.90;;;;;;10315945;28;20227;-77
2022/07/10 15:56:43;;;;;;;2.85;0.82;;;18.90;1.00;;;;;;10337221;28;20272;-78
2022/07/10 16:02:05;;;;;;;1.58;0.77;;;18.70;1.00;;;;;;10355427;28;20268;-78
2022/07/10 16:07:26;;;;;;;0.75;0.75;;;18.70;1.00;;;;;;10350717;28;20195;-78
2022/07/10 16:12:48;;;;;;;2.55;0.70;;;18.70;1.00;;;;;;10408708;28;20228;-78
2022/07/10 16:18:09;;;;;;;1.45;0.60;;;18.70;27.10;;;;;;10395948;28;20207;-78
2022/07/10 16:23:30;;;;;;;1.45;0.60;;;18.60;1.00;;;;;;10394872;28;20208;-78
2022/07/10 16:28:52;;;;;;;0.95;0.73;;;18.40;99.90;;;;;;10396028;28;20208;-78
2022/07/10 16:34:13;;;;;;;0.70;0.65;;;18.40;1.00;;;;;;10369238;28;20412;-79
2022/07/10 16:39:35;;;;;;;2.55;1.10;;;18.20;1.00;;;;;;10351572;28;20237;-78
2022/07/10 16:44:57;;;;;;;1.10;0.95;;;18.20;1.00;;;;;;10346818;28;20194;-77
2022/07/10 16:50:18;;;;;;;1.15;0.63;;;18.10;1.00;;;;;;10314196;28;20230;-77
2022/07/10 16:55:40;;;;;;;1.00;0.90;;;18.00;1.00;;;;;;10327544;28;20225;-77
2022/07/10 17:01:02;;;;;;;2.92;1.17;;;18.00;1.00;;;;;;10354303;28;20220;-78
2022/07/10 17:06:23;;;;;;;3.20;1.20;;;18.00;1.00;;;;;;10355056;28;20197;-78
2022/07/10 17:11:44;;;;;;;2.08;0.88;;;17.90;1.00;;;;;;10395044;28;20200;-77
2022/07/10 17:17:05;;;;;;;1.33;0.73;;;17.80;1.00;;;;;;10368219;28;20201;-78
2022/07/10 17:22:27;;;;;;;3.13;1.17;;;17.70;1.00;;;;;;10353249;28;20197;-77
2022/07/10 17:27:48;;;;;;;4.35;2.60;;;17.70;1.00;;;;;;10341408;28;20197;-79
2022/07/10 17:33:10;;;;;;;3.65;2.30;;;17.70;99.90;;;;;;10354789;28;20221;-78
2022/07/10 17:38:31;;;;;;;4.05;2.25;;;17.70;1.00;;;;;;10353850;28;20378;-77
2022/07/10 17:43:53;;;;;;;5.32;2.75;;;17.70;1.00;;;;;;10354470;28;20201;-78
2022/07/10 17:49:14;;;;;;;4.32;2.90;;;17.60;1.00;;;;;;10360669;28;20232;-78
2022/07/10 17:54:35;;;;;;;3.13;2.33;;;17.50;1.00;;;;;;10359381;28;20255;-78
2022/07/10 17:59:57;;;;;;;3.92;1.60;;;17.50;99.90;;;;;;10356182;28;20205;-78
2022/07/10 18:05:20;;;;;;;2.10;1.75;;;17.40;99.90;;;;;;10360638;28;20190;-78
2022/07/10 18:10:42;;;;;;;3.50;2.05;;;17.30;1.00;;;;;;10380424;28;20193;-78
2022/07/10 18:16:10;;;;;;;2.13;1.05;;;17.20;99.90;;;;;;10400321;28;20244;-78
2022/07/10 18:21:32;;;;;;;2.45;1.50;;;17.00;99.90;;;;;;10400469;28;20272;-78
2022/07/10 18:26:53;;;;;;;4.63;1.13;;;16.90;1.00;;;;;;10400580;28;20192;-77
2022/07/10 18:32:15;;;;;;;2.45;1.33;;;16.80;1.00;;;;;;10320274;28;20201;-78
2022/07/10 18:37:37;;;;;;;1.05;0.63;;;16.60;1.00;;;;;;10319198;28;20492;-78
2022/07/10 18:43:00;;;;;;;0.93;0.60;;;16.50;1.00;;;;;;10317597;28;20274;-76
2022/07/10 18:48:22;;;;;;;1.23;0.70;;;16.30;99.90;;;;;;10322269;28;20255;-78
2022/07/10 18:53:45;;;;;;;5.45;1.55;;;;;;;;;;10358543;28;20290;-78
2022/07/10 18:59:06;;;;;;;4.10;1.10;;;;;;;;;;10357662;28;20196;-77
2022/07/10 19:04:28;;;;;;;1.88;0.80;;;15.20;1.00;;;;;;10357939;28;20241;-77
2022/07/10 19:09:49;;;;;;;2.00;0.85;;;15.10;1.80;;;;;;10386608;28;20283;-76
2022/07/10 19:15:11;;;;;;;6.40;4.18;;;14.90;1.00;;;;;;10397265;28;20233;-76
2022/07/10 19:20:36;;;;;;;13.07;7.30;;;14.90;58.50;;;;;;10394041;28;20215;-77
2022/07/10 19:25:57;;;;;;;12.20;7.30;;;14.90;28.70;;;;;;10316803;28;20209;-78
2022/07/10 19:31:19;;;;;;;7.57;5.32;;;14.80;36.90;;;;;;10315780;28;20502;-78
2022/07/10 19:36:40;;;;;;;8.45;5.05;;;14.80;77.80;;;;;;10326201;28;20515;-78
2022/07/10 19:42:04;;;;;;;7.47;4.68;;;14.70;99.90;;;;;;10321182;28;20461;-77
2022/07/10 19:47:25;;;;;;;12.18;6.03;;;14.70;99.90;;;;;;10316495;28;20240;-77
2022/07/10 19:52:46;;;;;;;9.95;4.80;;;14.60;99.90;;;;;;10316224;28;20412;-77
2022/07/10 19:58:08;;;;;;;5.93;3.03;;;14.50;99.90;;;;;;10348242;28;20208;-78
2022/07/10 20:03:29;;;;;;;5.97;2.45;;;14.40;99.90;;;;;;10355348;28;20415;-77
2022/07/10 20:08:51;;;;;;;4.70;1.92;;;;;;;;;;10374600;28;20226;-78
2022/07/10 20:14:13;;;;;;;6.65;3.38;;;14.30;99.90;;;;;;10325282;28;20271;-77
2022/07/10 20:19:37;;;;;;;5.47;3.72;;;14.20;99.90;;;;;;10301228;28;20400;-78
2022/07/10 20:25:03;;;;;;;4.97;3.50;;;14.20;99.90;;;;;;10314663;28;20272;-77
2022/07/10 20:30:24;;;;;;;5.18;3.50;;;14.20;99.90;;;;;;10328590;28;20193;-77
2022/07/10 20:37:38;;;;;;;13.20;7.90;;;14.20;99.90;;;;;;10349773;28;20240;-78
2022/07/10 20:41:27;;;;;;;10.70;6.82;;;14.20;99.90;;;;;;10355032;28;20214;-77
2022/07/10 20:46:49;;;;;;;7.00;4.90;;;14.20;99.90;;;;;;10356328;28;20193;-78
2022/07/10 20:52:10;;;;;;;6.40;3.45;;;14.30;99.90;;;;;;10355122;28;20202;-78
2022/07/10 20:57:32;;;;;;;5.32;3.05;;;14.20;99.90;;;;;;10354207;28;20206;-79
2022/07/10 21:02:53;;;;;;;9.82;3.28;;;14.20;99.90;;;;;;10313976;28;20208;-76
2022/07/10 21:08:15;;;;;;;7.57;3.47;;;14.30;99.90;;;;;;10344985;28;20197;-76
2022/07/10 21:13:36;;;;;;;6.40;2.92;;;14.30;99.90;;;;;;10389171;28;20228;-78
2022/07/10 21:18:58;;;;;;;5.00;2.38;;;14.40;99.90;;;;;;10358171;28;20246;-77
2022/07/10 21:24:21;;;;;;;4.97;2.88;;;14.50;99.90;;;;;;10362120;28;20396;-78
2022/07/10 21:29:43;;;;;;;3.85;2.45;;;14.50;99.90;;;;;;10374744;28;20197;-78
2022/07/10 21:35:04;;;;;;;5.55;2.90;;;14.40;99.90;;;;;;10345921;28;20224;-78
2022/07/10 21:40:26;;;;;;;6.15;3.05;;;14.40;99.90;;;;;;10361520;28;20266;-78
2022/07/10 21:45:48;;;;;;;4.10;2.28;;;14.40;99.90;;;;;;10361379;28;20270;-78
2022/07/10 21:51:09;;;;;;;6.88;2.33;;;14.40;99.90;;;;;;10361002;28;20235;-78
2022/07/10 21:56:30;;;;;;;4.55;1.75;;;14.40;99.90;;;;;;10360333;28;20233;-78
2022/07/10 22:01:51;;;;;;;2.75;1.50;;;14.40;99.90;;;;;;10359264;28;20199;-77
2022/07/10 22:07:13;;;;;;;1.88;1.23;;;14.50;99.90;;;;;;10348803;28;20241;-77
2022/07/10 22:12:35;;;;;;;1.25;0.90;;;14.40;99.90;;;;;;10400818;28;20270;-77
2022/07/10 22:17:56;;;;;;;3.50;1.55;;;14.40;99.90;;;;;;10399535;28;20194;-78
2022/07/10 22:23:18;;;;;;;3.53;1.63;;;14.40;99.90;;;;;;10400140;28;20195;-77
2022/07/10 22:28:39;;;;;;;4.55;1.45;;;14.40;99.90;;;;;;10400926;28;20195;-79
2022/07/10 22:34:01;;;;;;;2.70;1.15;;;14.30;99.90;;;;;;10367353;28;20224;-78
2022/07/10 22:39:22;;;;;;;4.22;1.20;;;14.10;99.90;;;;;;10318919;28;20193;-78
2022/07/10 22:44:45;;;;;;;1.20;0.60;;;13.90;99.90;;;;;;10318676;28;20274;-77
2022/07/10 22:50:07;;;;;;;3.03;1.05;;;13.70;99.90;;;;;;10317293;28;20245;-78
2022/07/10 22:55:29;;;;;;;3.22;1.10;;;13.60;99.90;;;;;;10328609;28;20310;-78
2022/07/10 23:00:50;;;;;;;1.60;0.70;;;13.50;99.90;;;;;;10357530;28;20249;-76
2022/07/10 23:06:11;;;;;;;3.08;1.23;;;13.60;99.90;;;;;;10357623;28;20205;-77
2022/07/10 23:11:33;;;;;;;1.65;0.90;;;13.70;99.90;;;;;;10360043;28;20262;-76
2022/07/10 23:16:56;;;;;;;1.95;0.98;;;13.80;99.90;;;;;;10357886;28;20230;-78
2022/07/10 23:22:18;;;;;;;3.50;1.30;;;13.80;99.90;;;;;;10357416;28;20198;-78
2022/07/10 23:27:40;;;;;;;3.47;0.95;;;13.80;99.90;;;;;;10370108;28;20391;-78
2022/07/10 23:33:01;;;;;;;6.00;1.40;;;13.70;99.90;;;;;;10348240;28;20375;-77
2022/07/10 23:38:22;;;;;;;1.35;0.90;;;13.70;99.90;;;;;;10316725;28;20198;-77
2022/07/10 23:43:45;;;;;;;2.40;1.20;;;13.70;99.90;;;;;;10314664;28;20550;-77
2022/07/10 23:54:47;;;;;;;2.05;1.00;;;13.60;99.90;;;;;;10320457;28;20231;-78
